createdAt,value
2022-08-18T00:01:16.039Z,19.02
2022-08-18T00:03:57.360Z,19.03
2022-08-18T00:06:30.510Z,15.34
2022-08-18T00:08:59.335Z,19.02
2022-08-18T00:11:41.464Z,16.27
2022-08-18T00:14:22.660Z,18.86
2022-08-18T00:16:52.422Z,18.65
2022-08-18T00:19:20.295Z,17.44
2022-08-18T00:22:08.366Z,18.11
2022-08-18T00:24:48.639Z,15.78
2022-08-18T00:27:23.227Z,18.67
2022-08-18T00:29:52.322Z,18.13
2022-08-18T00:32:25.301Z,18.64
2022-08-18T00:34:55.500Z,17.52
2022-08-18T00:37:23.986Z,18.44
2022-08-18T00:39:52.859Z,15.17
2022-08-18T00:42:28.171Z,15.21
2022-08-18T00:45:04.362Z,18.32
2022-08-18T00:47:36.362Z,17.73
2022-08-18T00:50:14.999Z,17.28
2022-08-18T00:52:53.515Z,17.13
2022-08-18T00:55:20.935Z,18.25
2022-08-18T00:57:50.312Z,16.80
2022-08-18T01:00:17.922Z,18.21
2022-08-18T01:02:48.592Z,18.20
2022-08-18T01:05:33.964Z,18.21
2022-08-18T01:08:01.096Z,17.99
2022-08-18T01:10:28.077Z,18.19
2022-08-18T01:12:58.349Z,18.15
2022-08-18T01:15:28.106Z,17.47
2022-08-18T01:18:17.788Z,16.12
2022-08-18T01:21:13.031Z,15.92
2022-08-18T01:23:41.394Z,17.70
2022-08-18T01:26:09.408Z,17.74
2022-08-18T01:28:45.987Z,15.57
2022-08-18T01:31:30.776Z,17.52
2022-08-18T01:33:58.951Z,13.96
2022-08-18T01:36:25.872Z,17.14
2022-08-18T01:38:53.760Z,15.93
2022-08-18T01:41:30.384Z,17.83
2022-08-18T01:43:59.570Z,14.51
2022-08-18T01:46:28.400Z,14.12
2022-08-18T01:48:55.789Z,16.13
2022-08-18T01:51:39.966Z,17.63
2022-08-18T01:54:11.649Z,16.28
2022-08-18T01:56:39.091Z,13.14
2022-08-18T01:59:07.803Z,15.56
2022-08-18T02:01:48.517Z,16.82
2022-08-18T02:04:35.575Z,14.67
2022-08-18T02:07:07.015Z,16.92
2022-08-18T02:09:34.516Z,17.58
2022-08-18T02:12:02.485Z,16.47
2022-08-18T02:14:31.464Z,17.44
2022-08-18T02:17:01.627Z,17.69
2022-08-18T02:19:40.295Z,17.41
2022-08-18T02:22:09.333Z,16.08
2022-08-18T02:24:36.740Z,17.55
2022-08-18T02:27:05.918Z,14.17
2022-08-18T02:29:33.169Z,16.77
2022-08-18T02:32:00.036Z,16.88
2022-08-18T02:34:28.548Z,17.27
2022-08-18T02:36:56.283Z,16.13
2022-08-18T02:39:23.109Z,16.68
2022-08-18T02:41:51.347Z,16.66
2022-08-18T02:44:18.240Z,16.81
2022-08-18T02:46:46.334Z,17.10
2022-08-18T02:49:13.211Z,16.22
2022-08-18T02:51:40.311Z,16.23
2022-08-18T02:54:11.492Z,17.13
2022-08-18T02:56:42.374Z,16.20
2022-08-18T02:59:16.326Z,17.04
2022-08-18T03:01:48.979Z,17.00
2022-08-18T03:04:22.037Z,12.95
2022-08-18T03:06:52.578Z,14.95
2022-08-18T03:09:19.871Z,14.84
2022-08-18T03:11:47.679Z,15.88
2022-08-18T03:14:16.757Z,17.00
2022-08-18T03:16:53.703Z,16.24
2022-08-18T03:19:28.420Z,16.28
2022-08-18T03:21:59.446Z,16.15
2022-08-18T03:24:31.484Z,16.80
2022-08-18T03:27:00.104Z,16.78
2022-08-18T03:29:31.992Z,16.50
2022-08-18T03:32:02.392Z,16.28
2022-08-18T03:34:29.943Z,13.48
2022-08-18T03:36:56.976Z,13.69
2022-08-18T03:39:25.172Z,15.68
2022-08-18T03:41:58.508Z,16.75
2022-08-18T03:44:28.764Z,15.37
2022-08-18T03:46:55.909Z,16.61
2022-08-18T03:49:24.343Z,15.87
2022-08-18T03:51:51.815Z,15.00
2022-08-18T03:54:19.100Z,15.69
2022-08-18T03:56:49.422Z,16.59
2022-08-18T03:59:22.328Z,16.77
2022-08-18T04:01:51.374Z,14.63
2022-08-18T04:04:21.486Z,16.67
2022-08-18T04:06:53.974Z,17.07
2022-08-18T04:09:22.359Z,17.11
2022-08-18T04:11:49.927Z,13.14
2022-08-18T04:14:21.996Z,16.28
2022-08-18T04:16:49.300Z,14.93
2022-08-18T04:19:26.564Z,16.80
2022-08-18T04:21:58.567Z,17.44
2022-08-18T04:24:31.236Z,17.46
2022-08-18T04:27:01.124Z,16.37
2022-08-18T04:29:28.681Z,17.47
2022-08-18T04:31:56.143Z,16.82
2022-08-18T04:34:23.454Z,16.06
2022-08-18T04:36:54.445Z,15.03
2022-08-18T04:39:23.192Z,17.51
2022-08-18T04:41:50.482Z,16.78
2022-08-18T04:44:18.300Z,16.21
2022-08-18T04:46:58.852Z,17.47
2022-08-18T04:49:26.426Z,17.52
2022-08-18T04:52:38.361Z,17.11
2022-08-18T04:55:01.965Z,16.94
2022-08-18T04:57:34.045Z,17.57
2022-08-18T05:00:02.832Z,17.28
2022-08-18T05:02:31.559Z,17.15
2022-08-18T05:04:59.442Z,17.29
2022-08-18T05:07:26.383Z,17.73
2022-08-18T05:09:55.635Z,17.86
2022-08-18T05:12:25.171Z,16.75
2022-08-18T05:14:53.998Z,16.79
2022-08-18T05:17:21.813Z,17.26
2022-08-18T05:19:51.694Z,17.37
2022-08-18T05:22:24.274Z,18.23
2022-08-18T05:24:58.391Z,18.25
2022-08-18T05:27:25.274Z,18.29
2022-08-18T05:29:53.269Z,17.03
2022-08-18T05:32:38.274Z,15.42
2022-08-18T05:35:12.285Z,17.73
2022-08-18T05:37:58.760Z,17.20
2022-08-18T05:40:26.057Z,18.40
2022-08-18T05:42:57.450Z,18.38
2022-08-18T05:45:24.894Z,17.10
2022-08-18T05:47:59.477Z,18.44
2022-08-18T05:50:27.890Z,17.73
2022-08-18T05:53:13.729Z,17.49
2022-08-18T05:56:10.301Z,17.75
2022-08-18T05:58:40.760Z,18.61
2022-08-18T06:01:19.708Z,17.08
2022-08-18T06:03:50.384Z,18.53
2022-08-18T06:06:21.649Z,18.54
2022-08-18T06:09:20.267Z,16.65
2022-08-18T06:11:49.448Z,17.22
2022-08-18T06:14:17.063Z,15.72
2022-08-18T06:17:10.444Z,18.54
2022-08-18T06:19:52.898Z,16.03
2022-08-18T06:22:52.414Z,18.69
2022-08-18T06:25:25.216Z,18.81
2022-08-18T06:27:55.721Z,18.89
2022-08-18T06:30:33.339Z,19.13
2022-08-18T06:33:25.680Z,18.45
2022-08-18T06:35:58.652Z,17.68
2022-08-18T06:38:45.582Z,19.42
2022-08-18T06:41:41.652Z,19.31
2022-08-18T06:44:51.726Z,19.63
2022-08-18T06:47:35.295Z,19.56
2022-08-18T06:50:13.704Z,20.06
2022-08-18T06:53:02.172Z,20.24
2022-08-18T06:55:37.070Z,16.70
2022-08-18T06:58:18.001Z,20.01
2022-08-18T07:00:54.917Z,20.47
2022-08-18T07:03:44.977Z,19.43
2022-08-18T07:06:24.258Z,20.44
2022-08-18T07:08:53.845Z,20.48
2022-08-18T07:11:28.719Z,20.45
2022-08-18T07:14:15.436Z,20.47
2022-08-18T07:16:58.393Z,20.52
2022-08-18T07:19:30.177Z,19.57
2022-08-18T07:22:18.124Z,20.11
2022-08-18T07:24:48.991Z,21.18
2022-08-18T07:27:22.794Z,21.24
2022-08-18T07:29:59.699Z,21.40
2022-08-18T07:32:34.549Z,21.31
2022-08-18T07:35:03.713Z,21.30
2022-08-18T07:37:44.122Z,21.23
2022-08-18T07:40:26.619Z,20.04
2022-08-18T07:43:02.556Z,20.80
2022-08-18T07:45:32.828Z,21.42
2022-08-18T07:48:37.201Z,21.15
2022-08-18T07:51:33.315Z,21.95
2022-08-18T07:54:48.242Z,22.17
2022-08-18T07:57:21.409Z,22.00
2022-08-18T07:59:56.276Z,22.19
2022-08-18T08:02:59.201Z,22.36
2022-08-18T08:05:45.139Z,22.40
2022-08-18T08:08:38.034Z,22.15
2022-08-18T08:11:27.479Z,20.64
2022-08-18T08:14:16.265Z,21.67
2022-08-18T08:16:47.147Z,22.17
2022-08-18T08:19:42.558Z,22.12
2022-08-18T08:22:29.336Z,21.26
2022-08-18T08:25:46.337Z,22.10
2022-08-18T08:28:42.630Z,22.13
2022-08-18T08:31:37.405Z,22.26
2022-08-18T08:34:21.703Z,21.23
2022-08-18T08:36:50.581Z,21.43
2022-08-18T08:39:36.751Z,22.54
2022-08-18T08:42:30.897Z,22.50
2022-08-18T08:45:25.866Z,22.50
2022-08-18T08:48:28.756Z,21.78
2022-08-18T08:51:01.761Z,22.24
2022-08-18T08:53:34.757Z,22.23
2022-08-18T08:56:07.725Z,21.32
2022-08-18T08:58:40.864Z,22.35
2022-08-18T09:01:17.379Z,21.49
2022-08-18T09:03:50.876Z,22.26
2022-08-18T09:06:41.756Z,22.21
2022-08-18T09:09:21.197Z,23.11
2022-08-18T09:12:13.549Z,23.47
2022-08-18T09:15:09.092Z,23.36
2022-08-18T09:17:50.771Z,23.76
2022-08-18T09:20:49.162Z,25.13
2022-08-18T09:23:29.291Z,25.43
2022-08-18T09:26:00.913Z,26.01
2022-08-18T09:28:27.853Z,26.46
2022-08-18T09:31:08.960Z,26.69
2022-08-18T09:33:48.568Z,26.77
2022-08-18T09:36:48.272Z,26.70
2022-08-18T09:39:54.908Z,26.85
2022-08-18T09:45:33.525Z,26.98
2022-08-18T09:48:28.416Z,26.98
2022-08-18T09:50:37.043Z,27.08
2022-08-18T09:51:20.303Z,25.58
2022-08-18T09:53:47.416Z,27.01
2022-08-18T10:01:56.092Z,26.49
2022-08-18T10:04:49.431Z,26.79
2022-08-18T10:07:38.921Z,26.99
2022-08-18T10:11:00.502Z,26.97
2022-08-18T10:13:48.317Z,27.46
2022-08-18T10:16:25.935Z,28.08
2022-08-18T10:19:16.882Z,28.74
2022-08-18T10:22:00.295Z,29.07
2022-08-18T10:24:51.713Z,27.99
2022-08-18T10:27:44.706Z,29.23
2022-08-18T10:30:34.638Z,29.19
2022-08-18T10:33:17.629Z,26.71
2022-08-18T10:35:58.533Z,29.49
2022-08-18T10:41:31.029Z,28.46
2022-08-18T10:43:59.487Z,29.28
2022-08-18T10:46:34.343Z,27.06
2022-08-18T10:49:13.064Z,28.71
2022-08-18T10:51:59.247Z,28.62
2022-08-18T10:58:14.417Z,27.04
2022-08-18T11:01:06.531Z,27.82
2022-08-18T11:04:27.455Z,28.07
2022-08-18T11:07:07.768Z,27.77
2022-08-18T11:09:36.930Z,27.19
2022-08-18T11:12:11.811Z,27.68
2022-08-18T11:14:51.874Z,27.96
2022-08-18T11:17:32.023Z,28.08
2022-08-18T11:20:01.765Z,28.11
2022-08-18T11:22:34.460Z,28.50
2022-08-18T11:25:17.535Z,29.06
2022-08-18T11:27:47.267Z,26.49
2022-08-18T11:30:17.248Z,26.64
2022-08-18T11:32:52.193Z,25.27
2022-08-18T11:35:25.676Z,28.33
2022-08-18T11:37:58.024Z,29.69
2022-08-18T11:41:09.126Z,29.80
2022-08-18T11:43:21.605Z,29.71
2022-08-18T11:45:58.226Z,24.24
2022-08-18T11:48:39.015Z,29.49
2022-08-18T11:51:25.594Z,26.73
2022-08-18T11:54:18.618Z,29.52
2022-08-18T11:56:48.054Z,29.55
2022-08-18T11:59:53.896Z,29.62
2022-08-18T12:02:18.698Z,27.66
2022-08-18T12:04:51.050Z,29.88
2022-08-18T12:07:30.181Z,29.64
2022-08-18T12:10:26.519Z,29.18
2022-08-18T12:12:59.994Z,28.02
2022-08-18T12:15:47.046Z,28.27
2022-08-18T12:18:28.295Z,26.95
2022-08-18T12:20:58.471Z,26.87
2022-08-18T12:23:26.196Z,27.10
2022-08-18T12:25:53.300Z,24.26
2022-08-18T12:28:22.490Z,27.94
2022-08-18T12:30:56.017Z,26.78
2022-08-18T12:33:34.449Z,26.65
2022-08-18T12:36:15.809Z,27.95
2022-08-18T12:38:44.530Z,25.89
2022-08-18T12:41:24.905Z,26.31
2022-08-18T12:43:58.543Z,26.03
2022-08-18T12:46:31.800Z,26.17
2022-08-18T12:48:59.458Z,24.90
2022-08-18T12:51:30.790Z,28.85
2022-08-18T12:54:00.281Z,28.99
2022-08-18T12:56:30.956Z,27.22
2022-08-18T12:59:04.186Z,29.26
2022-08-18T13:01:34.008Z,28.97
2022-08-18T13:04:13.090Z,28.80
2022-08-18T13:06:59.222Z,28.94
2022-08-18T13:09:35.183Z,27.56
2022-08-18T13:12:20.816Z,27.69
2022-08-18T13:14:48.678Z,29.16
2022-08-18T13:17:32.098Z,27.16
2022-08-18T13:20:13.524Z,28.81
2022-08-18T13:22:41.626Z,28.95
2022-08-18T13:25:13.187Z,29.02
2022-08-18T13:28:00.774Z,26.18
2022-08-18T13:30:32.123Z,27.27
2022-08-18T13:33:05.770Z,26.14
2022-08-18T13:35:54.174Z,27.69
2022-08-18T13:38:27.123Z,29.33
2022-08-18T13:40:59.779Z,27.99
2022-08-18T13:43:32.037Z,28.43
2022-08-18T13:45:59.979Z,26.40
2022-08-18T13:48:28.526Z,28.21
2022-08-18T13:51:00.963Z,27.67
2022-08-18T13:53:29.892Z,26.87
2022-08-18T13:55:59.614Z,29.39
2022-08-18T13:58:28.259Z,27.96
2022-08-18T14:01:39.484Z,27.95
2022-08-18T14:03:53.374Z,27.06
2022-08-18T14:06:22.619Z,26.53
2022-08-18T14:08:52.579Z,28.70
2022-08-18T14:11:27.775Z,26.31
2022-08-18T14:14:02.085Z,28.47
2022-08-18T14:16:30.832Z,26.66
2022-08-18T14:19:17.852Z,26.62
2022-08-18T14:22:11.524Z,28.52
2022-08-18T14:24:59.259Z,26.20
2022-08-18T14:27:35.537Z,27.34
2022-08-18T14:30:06.965Z,27.34
2022-08-18T14:32:36.359Z,24.82
2022-08-18T14:35:31.721Z,28.34
2022-08-18T14:37:53.693Z,28.47
2022-08-18T14:40:23.767Z,29.28
2022-08-18T14:42:54.323Z,27.12
2022-08-18T14:45:31.407Z,29.33
2022-08-18T14:48:06.451Z,28.64
2022-08-18T14:50:34.796Z,27.78
2022-08-18T14:53:02.651Z,25.55
2022-08-18T14:55:30.546Z,27.97
2022-08-18T14:57:59.358Z,27.03
2022-08-18T15:00:27.740Z,28.40
2022-08-18T15:02:55.301Z,28.72
2022-08-18T15:05:24.393Z,29.32
2022-08-18T15:07:52.769Z,27.91
2022-08-18T15:10:23.476Z,26.24
2022-08-18T15:13:04.557Z,29.16
2022-08-18T15:15:50.544Z,27.03
2022-08-18T15:18:22.690Z,27.64
2022-08-18T15:21:19.643Z,27.74
2022-08-18T15:24:20.084Z,25.89
2022-08-18T15:26:51.840Z,26.82
2022-08-18T15:29:28.004Z,28.51
2022-08-18T15:32:05.334Z,26.13
2022-08-18T15:34:45.954Z,25.75
2022-08-18T15:37:14.113Z,24.93
2022-08-18T15:39:41.660Z,26.88
2022-08-18T15:42:10.792Z,26.83
2022-08-18T15:44:38.247Z,24.40
2022-08-18T15:47:09.351Z,26.66
2022-08-18T15:49:36.655Z,25.17
2022-08-18T15:52:04.187Z,24.76
2022-08-18T15:54:31.323Z,27.65
2022-08-18T15:56:58.954Z,27.42
2022-08-18T15:59:39.985Z,27.71
2022-08-18T16:02:11.456Z,25.00
2022-08-18T16:04:41.374Z,27.79
2022-08-18T16:07:12.888Z,27.82
2022-08-18T16:09:39.897Z,26.19
2022-08-18T16:12:09.317Z,25.30
2022-08-18T16:14:40.689Z,25.34
2022-08-18T16:17:09.422Z,26.47
2022-08-18T16:19:45.409Z,26.53
2022-08-18T16:22:13.455Z,24.28
2022-08-18T16:24:40.814Z,24.66
2022-08-18T16:27:08.829Z,25.27
2022-08-18T16:29:36.584Z,24.27
2022-08-18T16:32:04.394Z,25.60
2022-08-18T16:34:43.442Z,23.67
2022-08-18T16:37:11.169Z,23.40
2022-08-18T16:39:39.510Z,25.43
2022-08-18T16:42:07.890Z,25.15
2022-08-18T16:44:36.545Z,25.44
2022-08-18T16:47:07.741Z,21.17
2022-08-18T16:49:35.975Z,24.03
2022-08-18T16:52:03.498Z,25.20
2022-08-18T16:54:30.928Z,24.18
2022-08-18T16:56:58.335Z,23.15
2022-08-18T16:59:44.549Z,22.56
2022-08-18T17:02:33.109Z,21.57
2022-08-18T17:05:02.743Z,23.89
2022-08-18T17:07:31.635Z,24.86
2022-08-18T17:10:00.304Z,22.34
2022-08-18T17:12:30.040Z,25.77
2022-08-18T17:15:03.799Z,25.64
2022-08-18T17:17:31.887Z,24.32
2022-08-18T17:19:59.437Z,25.38
2022-08-18T17:22:27.221Z,24.36
2022-08-18T17:25:00.534Z,23.23
2022-08-18T17:27:37.319Z,23.98
2022-08-18T17:30:22.820Z,23.73
2022-08-18T17:33:32.982Z,23.77
2022-08-18T17:36:05.577Z,24.86
2022-08-18T17:38:36.588Z,24.83
2022-08-18T17:41:07.146Z,23.10
2022-08-18T17:46:28.306Z,24.63
2022-08-18T17:49:25.393Z,24.60
2022-08-18T17:51:55.425Z,21.44
2022-08-18T17:54:37.018Z,24.44
2022-08-18T17:57:11.247Z,21.83
2022-08-18T17:59:52.016Z,21.00
2022-08-18T18:02:29.626Z,24.04
2022-08-18T18:08:57.128Z,24.07
2022-08-18T18:11:31.511Z,24.05
2022-08-18T18:14:24.470Z,23.22
2022-08-18T18:17:02.369Z,24.01
2022-08-18T18:19:33.102Z,19.75
2022-08-18T18:22:11.353Z,23.01
2022-08-18T18:24:39.989Z,23.18
2022-08-18T18:27:28.894Z,23.92
2022-08-18T18:30:06.168Z,23.92
2022-08-18T18:32:40.256Z,22.21
2022-08-18T18:35:14.142Z,21.84
2022-08-18T18:41:02.369Z,23.69
2022-08-18T18:44:04.981Z,21.70
2022-08-18T18:46:34.539Z,23.43
2022-08-18T18:49:10.676Z,23.36
2022-08-18T18:52:02.195Z,23.21
2022-08-18T18:54:36.394Z,23.10
2022-08-18T18:57:10.914Z,18.02
2022-08-18T19:00:00.752Z,22.92
2022-08-18T19:02:48.149Z,22.82
2022-08-18T19:05:35.901Z,22.69
2022-08-18T19:08:18.044Z,22.55
2022-08-18T19:11:00.989Z,21.56
2022-08-18T19:13:36.043Z,22.46
2022-08-18T19:16:34.054Z,21.44
2022-08-18T19:19:36.890Z,22.35
2022-08-18T19:25:24.845Z,22.28
2022-08-18T19:28:09.800Z,22.32
2022-08-18T19:30:40.634Z,18.77
2022-08-18T19:33:10.277Z,22.47
2022-08-18T19:35:58.631Z,21.49
2022-08-18T19:39:02.697Z,22.59
2022-08-18T19:41:45.831Z,22.58
2022-08-18T19:44:29.133Z,22.76
2022-08-18T19:47:15.996Z,21.98
2022-08-18T19:50:11.904Z,22.63
2022-08-18T19:53:04.847Z,19.80
2022-08-18T19:56:10.297Z,22.70
2022-08-18T19:59:15.773Z,22.70
2022-08-18T20:02:34.103Z,22.67
2022-08-18T20:05:07.181Z,22.64
2022-08-18T20:07:56.599Z,21.30
2022-08-18T20:10:38.855Z,22.53
2022-08-18T20:13:24.208Z,22.38
2022-08-18T20:15:59.699Z,22.31
2022-08-18T20:18:35.312Z,19.10
2022-08-18T20:21:15.811Z,22.14
2022-08-18T20:23:58.189Z,22.01
2022-08-18T20:26:41.146Z,21.92
2022-08-18T20:29:16.047Z,21.82
2022-08-18T20:31:50.046Z,21.74
2022-08-18T20:34:25.947Z,21.64
2022-08-18T20:36:53.643Z,21.20
2022-08-18T20:39:30.134Z,21.58
2022-08-18T20:42:00.083Z,19.65
2022-08-18T20:44:49.665Z,21.56
2022-08-18T20:47:32.360Z,20.19
2022-08-18T20:50:23.378Z,21.57
2022-08-18T20:53:15.390Z,21.55
2022-08-18T20:56:31.277Z,20.76
2022-08-18T20:59:08.636Z,20.12
2022-08-18T21:01:38.702Z,21.19
2022-08-18T21:04:06.999Z,21.12
2022-08-18T21:06:44.717Z,18.98
2022-08-18T21:09:17.847Z,18.19
2022-08-18T21:11:46.272Z,19.00
2022-08-18T21:14:24.159Z,20.79
2022-08-18T21:16:55.773Z,18.37
2022-08-18T21:19:29.004Z,20.79
2022-08-18T21:22:23.934Z,19.06
2022-08-18T21:24:54.131Z,20.70
2022-08-18T21:27:29.360Z,19.73
2022-08-18T21:30:07.425Z,19.51
2022-08-18T21:32:37.202Z,19.11
2022-08-18T21:35:42.541Z,20.61
2022-08-18T21:38:12.599Z,19.30
2022-08-18T21:40:46.811Z,20.55
2022-08-18T21:43:58.357Z,20.55
2022-08-18T21:46:29.084Z,19.92
2022-08-18T21:49:03.302Z,19.61
2022-08-18T21:51:42.395Z,20.50
2022-08-18T21:54:12.760Z,20.47
2022-08-18T21:56:40.325Z,18.98
2022-08-18T21:59:23.457Z,19.38
2022-08-18T22:01:54.355Z,16.47
2022-08-18T22:04:37.153Z,19.12
2022-08-18T22:07:34.791Z,17.08
2022-08-18T22:10:26.183Z,16.83
2022-08-18T22:13:17.013Z,20.24
2022-08-18T22:16:12.915Z,18.23
2022-08-18T22:18:40.121Z,19.69
2022-08-18T22:21:37.832Z,20.13
2022-08-18T22:24:20.033Z,17.19
2022-08-18T22:27:12.448Z,20.04
2022-08-18T22:29:50.837Z,19.87
2022-08-18T22:32:21.561Z,20.01
2022-08-18T22:34:53.393Z,18.45
2022-08-18T22:37:26.090Z,19.95
2022-08-18T22:40:06.169Z,19.92
2022-08-18T22:42:33.789Z,18.63
2022-08-18T22:45:04.602Z,19.87
2022-08-18T22:47:43.157Z,19.86
2022-08-18T22:50:13.245Z,19.83
2022-08-18T22:52:43.138Z,18.48
2022-08-18T22:55:13.159Z,19.76
2022-08-18T22:57:42.960Z,18.82
2022-08-18T23:00:17.315Z,19.04
2022-08-18T23:02:45.184Z,19.67
2022-08-18T23:05:12.316Z,18.29
2022-08-18T23:07:39.362Z,18.45
2022-08-18T23:10:13.438Z,17.71
2022-08-18T23:12:43.648Z,19.46
2022-08-18T23:15:13.067Z,18.67
2022-08-18T23:17:42.310Z,19.41
2022-08-18T23:20:18.014Z,18.72
2022-08-18T23:22:47.781Z,16.72
2022-08-18T23:25:16.675Z,16.99
2022-08-18T23:27:43.769Z,19.30
2022-08-18T23:30:11.689Z,17.27
2022-08-18T23:32:38.689Z,19.28
2022-08-18T23:35:05.786Z,17.02
2022-08-18T23:37:32.894Z,18.77
2022-08-18T23:40:00.389Z,19.10
2022-08-18T23:42:27.471Z,19.02
2022-08-18T23:44:58.923Z,16.42
2022-08-18T23:47:26.302Z,19.17
2022-08-18T23:49:53.803Z,18.42
2022-08-18T23:52:21.531Z,17.49
2022-08-18T23:54:48.569Z,17.13
2022-08-18T23:57:16.484Z,19.10
2022-08-18T23:59:43.378Z,14.19
